Terminal Aerodrome Forecast
Issued by NWS

Home | Current Version | Previous Version | Graphics & Text | Print | Product List | Glossary On
Versions: 1 2 3 4 5 6 7 8 9 10 11 12 13 14 15 16 17 18 19 20
000
FTUS43 KABR 241700
TAFATY
TAF
KATY 241739Z 2418/2518 15017G25KT P6SM VCTS SCT060CB BKN080
     FM242000 15017G25KT P6SM BKN100
     FM250300 15013KT P6SM SCT120
     FM250800 16009KT P6SM SCT120
     FM251600 32010KT P6SM SCT120=

USA.gov is the U.S. government's official web portal to all federal, state and local government web resources and services.